Time;durP1;ratioP1;P1;durP2;ratioP2;P2;SDS_P1;SDS_P2;PMS_P1;PMS_P2;Temp;Humidity;BMP_temperature;BMP_pressure;BME280_temperature;BME280_humidity;BME280_pressure;Samples;Min_cycle;Max_cycle;Signal;HPM_P1;HPM_P2
2021/04/11 00:00:17;;;;;;;5.22;3.03;;;;;;;10.48;43.67;95246.75;4993354;28;20457;-50
2021/04/11 00:02:44;;;;;;;6.30;3.15;;;;;;;10.44;43.78;95237.78;4993293;28;20054;-52
2021/04/11 00:05:12;;;;;;;7.82;3.03;;;;;;;10.39;43.85;95238.78;4993429;28;20108;-53
2021/04/11 00:07:39;;;;;;;7.05;3.22;;;;;;;10.45;43.66;95234.72;4993058;28;20104;-49
2021/04/11 00:10:08;;;;;;;6.25;3.10;;;;;;;10.47;43.53;95234.38;4993595;28;20046;-53
2021/04/11 00:12:34;;;;;;;8.30;3.30;;;;;;;10.42;43.71;95227.28;4992491;28;20125;-49
2021/04/11 00:15:05;;;;;;;4.57;3.25;;;;;;;10.37;43.70;95224.84;4993489;28;20104;-53
2021/04/11 00:17:31;;;;;;;5.38;2.97;;;;;;;10.26;44.40;95216.47;4993173;28;20078;-49
2021/04/11 00:19:58;;;;;;;6.15;3.40;;;;;;;10.19;44.43;95210.84;4993031;28;20089;-50
2021/04/11 00:22:24;;;;;;;5.05;3.08;;;;;;;10.23;44.32;95216.34;4992920;28;20065;-51
2021/04/11 00:24:51;;;;;;;5.35;3.25;;;;;;;10.17;44.52;95213.13;4993062;28;20082;-49
2021/04/11 00:27:17;;;;;;;5.13;3.30;;;;;;;10.11;44.92;95211.00;4992846;28;20082;-53
2021/04/11 00:29:44;;;;;;;4.95;3.15;;;;;;;10.10;44.76;95210.22;4993078;28;20496;-51
2021/04/11 00:32:10;;;;;;;7.55;3.35;;;;;;;10.14;44.39;95208.41;4992796;28;20076;-53
2021/04/11 00:34:37;;;;;;;6.35;3.20;;;;;;;9.98;44.93;95208.38;4992676;28;20050;-50
2021/04/11 00:37:04;;;;;;;7.35;3.47;;;;;;;10.03;45.25;95210.81;4992876;28;20073;-54
2021/04/11 00:39:30;;;;;;;5.18;3.00;;;;;;;9.83;45.96;95207.19;4992610;28;20051;-47
2021/04/11 00:42:01;;;;;;;7.45;3.30;;;;;;;9.73;46.01;95201.50;4992537;28;20113;-51
2021/04/11 00:44:28;;;;;;;8.68;3.50;;;;;;;9.49;47.27;95192.38;4992787;28;20120;-50
2021/04/11 00:46:57;;;;;;;6.30;3.40;;;;;;;9.40;47.44;95194.44;4992532;28;20058;-57
2021/04/11 00:49:37;;;;;;;8.95;3.75;;;;;;;9.33;47.91;95192.31;4991470;28;20043;-47
2021/04/11 00:52:07;;;;;;;6.18;3.53;;;;;;;9.29;47.89;95191.41;4992593;28;20149;-49
2021/04/11 00:54:34;;;;;;;4.57;3.22;;;;;;;9.28;47.97;95187.13;4991129;28;20097;-51
2021/04/11 00:57:01;;;;;;;6.47;3.10;;;;;;;9.32;47.69;95182.63;4992303;28;20077;-47
2021/04/11 00:59:28;;;;;;;6.78;3.45;;;;;;;9.38;49.19;95179.69;4991523;28;20570;-49
2021/04/11 01:01:55;;;;;;;6.85;3.88;;;;;;;9.40;47.94;95188.25;4990684;28;20432;-58
2021/04/11 01:04:22;;;;;;;5.68;3.42;;;;;;;9.39;48.89;95179.34;4992436;28;20050;-48
2021/04/11 01:06:54;;;;;;;6.15;3.70;;;;;;;9.35;47.95;95181.16;4992098;28;20043;-54
2021/04/11 01:09:27;;;;;;;6.90;3.50;;;;;;;9.36;49.48;95180.06;5006665;28;20126;-53
2021/04/11 01:11:58;;;;;;;6.32;3.05;;;;;;;9.23;48.69;95176.59;4994210;28;20590;-47
2021/04/11 01:14:31;;;;;;;6.28;3.40;;;;;;;8.94;49.51;95174.16;5012223;28;20050;-53
2021/04/11 01:16:58;;;;;;;7.10;3.88;;;;;;;8.79;50.31;95175.66;4992340;28;20516;-52
2021/04/11 01:19:32;;;;;;;5.07;3.10;;;;;;;8.71;51.17;95179.25;5004029;28;20046;-57
2021/04/11 01:22:11;;;;;;;7.38;3.30;;;;;;;8.52;51.64;95172.53;5008158;28;20050;-53
2021/04/11 01:24:54;;;;;;;5.47;3.40;;;;;;;8.46;51.71;95173.09;5010132;28;20049;-53
2021/04/11 01:27:26;;;;;;;8.10;3.75;;;;;;;8.52;50.42;95172.53;5008141;28;20050;-55
2021/04/11 01:29:55;;;;;;;6.35;3.35;;;;;;;8.57;53.57;95166.91;4979082;28;20126;-48
2021/04/11 01:32:23;;;;;;;5.13;3.28;;;;;;;8.35;53.32;95175.41;5026994;23;20637;-49
2021/04/11 01:34:53;;;;;;;4.88;2.95;;;;;;;8.27;52.95;95165.53;4990252;28;20066;-49
2021/04/11 01:37:21;;;;;;;7.07;3.70;;;;;;;8.30;53.65;95171.03;5015568;28;20506;-49
2021/04/11 01:39:47;;;;;;;7.03;3.58;;;;;;;8.25;53.37;95156.97;5010170;28;20459;-48
2021/04/11 01:42:16;;;;;;;4.97;3.30;;;;;;;8.23;53.29;95159.25;5010200;28;20046;-49
2021/04/11 01:44:47;;;;;;;6.47;3.45;;;;;;;8.05;53.53;95154.03;5009694;28;20133;-49
2021/04/11 01:47:16;;;;;;;6.88;3.63;;;;;;;8.08;52.79;95158.75;5010329;28;20038;-52
2021/04/11 01:49:44;;;;;;;5.68;3.63;;;;;;;8.06;52.98;95157.50;5009679;28;20100;-52
2021/04/11 01:52:30;;;;;;;6.70;3.75;;;;;;;8.19;52.01;95157.22;5008512;28;20511;-51
2021/04/11 01:54:57;;;;;;;8.00;3.30;;;;;;;8.27;54.64;95155.53;5010837;28;20083;-52
2021/04/11 01:57:31;;;;;;;6.80;3.60;;;;;;;8.34;54.29;95161.13;5001524;28;20062;-53
2021/04/11 02:00:18;;;;;;;6.13;4.22;;;;;;;8.35;53.11;95156.53;5013058;28;20095;-56
2021/04/11 02:03:07;;;;;;;5.30;3.50;;;;;;;8.33;53.09;95156.09;5014678;28;20042;-51
2021/04/11 02:05:38;;;;;;;8.27;3.60;;;;;;;8.39;55.26;95152.88;5014005;28;20050;-55
2021/04/11 02:08:08;;;;;;;5.47;3.00;;;;;;;8.36;53.98;95150.81;5009722;28;20249;-51
2021/04/11 02:10:50;;;;;;;5.72;3.30;;;;;;;8.42;56.93;95154.13;4994414;28;20499;-53
2021/04/11 02:13:27;;;;;;;5.35;3.40;;;;;;;8.43;54.34;95152.97;5026568;28;20069;-53
2021/04/11 02:16:01;;;;;;;5.68;3.40;;;;;;;8.46;54.45;95154.22;5014627;28;20065;-52
2021/04/11 02:18:33;;;;;;;7.22;3.78;;;;;;;8.52;54.05;95152.88;5011877;28;20421;-54
2021/04/11 02:21:13;;;;;;;5.07;3.40;;;;;;;8.49;53.86;95146.25;5013409;28;20057;-54
2021/04/11 02:23:41;;;;;;;5.35;3.10;;;;;;;8.58;54.90;95149.63;5010636;28;20061;-54
2021/04/11 02:26:10;;;;;;;5.22;3.60;;;;;;;8.56;54.10;95142.97;5009590;28;20058;-51
2021/04/11 02:28:38;;;;;;;4.75;3.25;;;;;;;8.36;54.28;95147.34;5013696;28;20053;-51
2021/04/11 02:31:18;;;;;;;5.18;3.50;;;;;;;8.28;54.42;95140.13;5013748;28;20066;-55
2021/04/11 02:34:29;;;;;;;4.85;3.15;;;;;;;8.35;54.60;95146.56;4998916;28;20188;-53
2021/04/11 02:37:12;;;;;;;8.75;3.60;;;;;;;8.35;53.69;95151.13;5012791;28;20108;-49
2021/04/11 02:39:41;;;;;;;7.22;3.30;;;;;;;8.41;54.37;95150.59;5013642;28;20092;-52
2021/04/11 02:42:17;;;;;;;6.97;3.40;;;;;;;8.51;54.07;95149.38;5012891;28;20384;-52
2021/04/11 02:44:46;;;;;;;9.50;3.90;;;;;;;8.38;53.94;95156.69;5013574;28;20056;-53
2021/04/11 02:47:15;;;;;;;7.40;3.20;;;;;;;8.29;54.27;95147.13;5009316;28;20054;-54
2021/04/11 02:49:50;;;;;;;5.55;3.53;;;;;;;8.32;53.94;95141.03;5024462;28;20050;-54
2021/04/11 02:52:23;;;;;;;5.10;3.42;;;;;;;8.32;53.82;95141.84;5011450;28;20476;-51
2021/04/11 02:54:50;;;;;;;6.15;3.30;;;;;;;8.42;52.96;95141.41;5014042;28;20046;-53
2021/04/11 02:57:22;;;;;;;8.27;3.22;;;;;;;8.29;53.22;95139.03;5014229;28;20104;-51
2021/04/11 02:59:53;;;;;;;4.20;2.58;;;;;;;8.56;50.13;95145.69;5011934;28;20142;-54
2021/04/11 03:02:23;;;;;;;;;;;;;;;8.41;51.61;95141.75;5027057;28;20058;-56
2021/04/11 03:05:00;;;;;;;5.93;3.35;;;;;;;8.53;50.86;95152.53;4993050;28;19922;-54
2021/04/11 03:07:34;;;;;;;6.75;2.80;;;;;;;8.63;50.88;95140.50;5012596;28;20124;-53
2021/04/11 03:10:08;;;;;;;4.35;2.72;;;;;;;8.63;50.68;95146.69;5007782;28;20054;-54
2021/04/11 03:12:39;;;;;;;4.13;2.45;;;;;;;8.71;50.04;95141.50;4992858;28;20113;-52
2021/04/11 03:15:09;;;;;;;6.50;2.95;;;;;;;8.73;51.16;95134.66;5009013;28;20092;-54
2021/04/11 03:17:36;;;;;;;9.80;3.63;;;;;;;8.78;51.82;95133.63;4998720;28;20074;-50
2021/04/11 03:20:08;;;;;;;6.35;3.08;;;;;;;8.77;52.93;95132.81;5007257;28;20045;-53
2021/04/11 03:22:36;;;;;;;;;;;;;;;8.89;49.89;95130.13;5012630;28;20070;-55
2021/04/11 03:25:12;;;;;;;4.50;2.47;;;;;;;9.14;48.81;95127.38;5011586;28;20024;-54
2021/04/11 03:28:01;;;;;;;4.13;2.50;;;;;;;9.12;48.40;95129.63;4993190;28;20057;-54
2021/04/11 03:31:00;;;;;;;6.68;2.80;;;;;;;8.96;48.86;95131.44;5010624;28;20582;-51
2021/04/11 03:33:27;;;;;;;3.70;2.42;;;;;;;9.06;50.14;95122.88;5010720;28;20077;-54
2021/04/11 03:35:54;;;;;;;5.05;2.42;;;;;;;9.19;47.96;95129.03;4997952;28;20058;-56
2021/04/11 03:38:26;;;;;;;5.55;2.42;;;;;;;9.25;48.97;95123.03;5010489;28;20132;-55
2021/04/11 03:40:57;;;;;;;4.43;2.50;;;;;;;9.35;48.91;95132.56;4991713;28;20129;-52
2021/04/11 03:43:31;;;;;;;4.68;2.40;;;;;;;9.45;46.75;95129.38;5026234;28;20054;-51
2021/04/11 03:46:06;;;;;;;4.30;2.40;;;;;;;9.57;45.62;95126.63;4995229;28;20104;-53
2021/04/11 03:48:40;;;;;;;6.85;2.60;;;;;;;9.45;47.05;95126.66;5009923;28;20053;-52
2021/04/11 03:51:30;;;;;;;5.65;2.50;;;;;;;9.27;47.81;95130.81;5012804;28;20057;-53
2021/04/11 03:54:14;;;;;;;3.40;2.38;;;;;;;9.23;48.26;95135.31;5010467;28;20522;-54
2021/04/11 03:56:55;;;;;;;6.82;3.08;;;;;;;9.23;47.45;95130.72;5012567;28;20053;-55
2021/04/11 03:59:27;;;;;;;4.93;2.58;;;;;;;9.34;46.91;95129.09;5010586;28;20053;-54
2021/04/11 04:01:57;;;;;;;3.92;2.60;;;;;;;9.42;46.65;95124.66;5011278;28;20076;-51
2021/04/11 04:04:29;;;;;;;3.97;2.30;;;;;;;9.42;47.23;95132.75;5011835;28;20049;-50
2021/04/11 04:07:18;;;;;;;3.63;2.58;;;;;;;9.36;47.88;95131.47;5004914;28;20038;-53
2021/04/11 04:10:03;;;;;;;8.88;2.75;;;;;;;9.29;47.57;95126.63;5002645;28;20041;-55
2021/04/11 04:13:23;;;;;;;5.55;2.50;;;;;;;9.36;48.01;95131.47;5011039;28;20104;-54
2021/04/11 04:16:14;;;;;;;4.80;2.55;;;;;;;9.38;47.55;95134.59;5011933;28;20120;-53
2021/04/11 04:19:15;;;;;;;4.10;2.60;;;;;;;9.41;47.00;95131.19;5007470;28;20050;-56
2021/04/11 04:22:01;;;;;;;3.47;2.45;;;;;;;9.38;47.58;95136.50;5006829;28;20065;-56
2021/04/11 04:25:05;;;;;;;4.38;2.80;;;;;;;9.13;47.73;95142.78;5008275;28;20050;-55
2021/04/11 04:28:17;;;;;;;5.05;2.83;;;;;;;9.10;48.18;95135.38;5008431;28;20140;-52
2021/04/11 04:30:47;;;;;;;3.75;2.72;;;;;;;9.10;48.31;95138.06;5010471;28;20048;-56
2021/04/11 04:33:30;;;;;;;4.28;2.42;;;;;;;9.12;48.20;95135.78;5009510;28;20101;-55
2021/04/11 04:36:18;;;;;;;4.30;2.67;;;;;;;8.93;48.66;95138.31;5006029;28;20410;-54
2021/04/11 04:38:59;;;;;;;4.68;2.60;;;;;;;9.01;49.97;95140.09;5019801;28;20048;-55
2021/04/11 04:41:44;;;;;;;5.82;2.80;;;;;;;8.91;48.97;95145.97;5010927;28;20483;-53
2021/04/11 04:44:25;;;;;;;11.38;3.97;;;;;;;8.73;49.54;95140.03;5010803;28;20722;-55
2021/04/11 04:47:07;;;;;;;11.15;2.90;;;;;;;8.77;50.01;95145.53;5005313;28;20074;-50
2021/04/11 04:50:12;;;;;;;9.63;2.90;;;;;;;8.78;48.99;95147.13;4990967;28;20050;-51
2021/04/11 04:52:51;;;;;;;7.85;2.78;;;;;;;8.85;48.74;95144.63;4990953;28;20046;-52
2021/04/11 04:55:25;;;;;;;4.05;2.88;;;;;;;8.90;49.33;95147.09;5003221;28;20088;-51
2021/04/11 04:58:09;;;;;;;8.40;3.25;;;;;;;8.82;49.35;95143.41;5011155;28;20487;-53
2021/04/11 05:00:48;;;;;;;5.10;2.97;;;;;;;8.88;49.13;95146.66;5008381;28;20050;-52
2021/04/11 05:03:40;;;;;;;6.20;2.92;;;;;;;8.82;49.14;95139.91;5001793;28;20119;-52
2021/04/11 05:06:28;;;;;;;4.65;2.80;;;;;;;8.98;49.63;95145.41;5011647;28;20384;-52
2021/04/11 05:09:18;;;;;;;3.65;2.25;;;;;;;9.08;49.03;95150.31;5009450;28;20116;-54
2021/04/11 05:11:55;;;;;;;4.07;2.35;;;;;;;9.17;51.14;95152.88;5009164;28;20070;-54
2021/04/11 05:14:29;;;;;;;5.80;2.70;;;;;;;9.19;49.65;95146.00;5009716;28;20458;-54
2021/04/11 05:17:22;;;;;;;6.00;2.80;;;;;;;9.29;48.32;95142.03;5005992;28;20526;-51
2021/04/11 05:19:56;;;;;;;3.58;2.60;;;;;;;9.46;47.64;95146.38;4990604;28;20415;-55
2021/04/11 05:22:35;;;;;;;6.05;2.88;;;;;;;9.59;47.16;95142.50;5006051;28;20101;-53
2021/04/11 05:25:13;;;;;;;5.38;2.72;;;;;;;9.37;47.80;95141.13;5010498;28;20534;-51
2021/04/11 05:28:04;;;;;;;5.53;2.50;;;;;;;9.57;48.08;95148.22;5019525;28;20046;-52
2021/04/11 05:30:40;;;;;;;6.07;2.83;;;;;;;9.43;47.84;95150.53;5017259;28;20038;-52
2021/04/11 05:33:10;;;;;;;5.18;2.55;;;;;;;9.49;47.34;95153.75;5021294;28;20446;-53
2021/04/11 05:35:37;;;;;;;4.43;2.40;;;;;;;9.71;46.83;95152.44;5000844;28;20527;-53
2021/04/11 05:38:28;;;;;;;4.70;2.80;;;;;;;9.97;45.95;95154.66;5007372;28;20042;-52
2021/04/11 05:41:16;;;;;;;4.82;2.80;;;;;;;9.84;46.62;95156.66;5008821;28;20092;-54
2021/04/11 05:44:08;;;;;;;6.25;2.78;;;;;;;9.92;46.30;95141.44;5010893;28;20087;-56
2021/04/11 05:46:52;;;;;;;6.07;2.75;;;;;;;9.92;46.98;95150.31;4994208;28;20058;-54
2021/04/11 05:49:28;;;;;;;5.70;2.60;;;;;;;10.17;47.29;95156.34;5011358;28;20054;-51
2021/04/11 05:52:04;;;;;;;4.57;2.40;;;;;;;10.25;47.93;95160.78;5010511;28;20112;-51
2021/04/11 05:54:44;;;;;;;4.35;2.60;;;;;;;10.17;46.07;95155.53;5010835;28;20487;-52
2021/04/11 05:57:34;;;;;;;5.93;2.58;;;;;;;10.29;46.50;95156.28;5000840;28;20140;-52
2021/04/11 06:00:11;;;;;;;4.70;2.67;;;;;;;10.59;44.67;95163.16;5011349;28;20053;-54
2021/04/11 06:02:46;;;;;;;4.60;2.60;;;;;;;10.83;43.33;95162.97;5010781;28;20503;-52
2021/04/11 06:05:51;;;;;;;3.67;2.55;;;;;;;10.90;43.28;95159.63;5011219;28;20050;-53
2021/04/11 06:08:29;;;;;;;7.13;2.60;;;;;;;11.03;43.20;95146.75;4999012;28;20058;-51
2021/04/11 06:11:09;;;;;;;4.13;2.67;;;;;;;11.12;43.01;95142.72;4995222;28;20044;-50
2021/04/11 06:13:53;;;;;;;5.20;2.47;;;;;;;11.09;43.17;95148.84;5010637;28;20108;-52
2021/04/11 06:16:21;;;;;;;8.30;3.10;;;;;;;11.15;42.83;95150.13;5011181;28;20065;-54
2021/04/11 06:18:51;;;;;;;5.63;2.40;;;;;;;11.30;43.41;95150.41;5010387;28;20573;-55
2021/04/11 06:21:33;;;;;;;4.32;2.58;;;;;;;11.48;42.94;95151.56;5010596;28;20054;-52
2021/04/11 06:24:31;;;;;;;3.70;2.38;;;;;;;11.52;42.38;95147.00;5010556;28;20096;-53
2021/04/11 06:27:34;;;;;;;6.07;2.60;;;;;;;11.69;41.15;95146.56;5009072;28;20081;-53
2021/04/11 06:30:07;;;;;;;4.47;2.60;;;;;;;11.85;40.84;95148.44;5010313;28;20053;-57
2021/04/11 06:32:40;;;;;;;6.30;4.15;;;;;;;12.05;40.34;95141.03;5014276;28;20068;-52
2021/04/11 06:35:08;;;;;;;;;;;;;;;11.93;40.50;95150.13;5021383;28;20140;-51
2021/04/11 06:37:39;;;;;;;5.90;2.30;;;;;;;11.94;40.56;95146.28;5029731;28;19927;-53
2021/04/11 06:40:29;;;;;;;4.43;2.70;;;;;;;11.92;40.35;95137.72;5010960;28;20049;-57
2021/04/11 06:43:24;;;;;;;3.78;2.20;;;;;;;12.13;39.54;95137.31;5010642;28;20468;-54
2021/04/11 06:46:15;;;;;;;3.78;2.22;;;;;;;12.06;39.73;95134.50;5009851;28;20046;-56
2021/04/11 06:49:07;;;;;;;4.25;2.22;;;;;;;12.20;39.35;95132.00;5014176;28;20054;-54
2021/04/11 06:51:48;;;;;;;5.50;2.25;;;;;;;12.14;39.57;95131.53;5010396;28;20053;-52
2021/04/11 06:54:32;;;;;;;4.00;2.40;;;;;;;12.25;39.42;95129.00;5014918;28;20056;-55
2021/04/11 06:57:24;;;;;;;7.00;2.60;;;;;;;12.17;39.69;95124.59;5000842;28;20058;-56
2021/04/11 07:00:18;;;;;;;4.40;2.22;;;;;;;12.26;39.97;95118.94;4994720;28;20459;-54
2021/04/11 07:02:50;;;;;;;;;;;;;;;12.34;40.14;95113.25;4995063;28;20050;-53
2021/04/11 07:05:25;;;;;;;4.55;2.65;;;;;;;12.43;39.90;95114.94;5003215;28;20303;-56
2021/04/11 07:08:10;;;;;;;7.50;3.13;;;;;;;12.66;39.06;95112.97;5004677;28;20046;-53
2021/04/11 07:11:04;;;;;;;8.15;2.97;;;;;;;12.76;39.37;95119.69;5013959;28;20046;-53
2021/04/11 07:13:30;;;;;;;;;;;;;;;12.94;39.12;95120.75;5011560;28;20092;-54
2021/04/11 07:16:25;;;;;;;6.97;3.35;;;;;;;13.01;39.11;95109.97;5014125;28;19921;-52
2021/04/11 07:19:30;;;;;;;4.05;2.38;;;;;;;13.12;38.89;95112.81;4994423;28;20129;-54
2021/04/11 07:22:40;;;;;;;6.63;3.47;;;;;;;13.40;37.62;95111.66;5010150;28;20046;-50
2021/04/11 07:25:21;;;;;;;4.88;2.40;;;;;;;13.43;37.48;95108.19;5013345;28;20495;-52
2021/04/11 07:28:02;;;;;;;6.07;2.50;;;;;;;13.57;37.32;95119.22;5011632;28;20049;-54
2021/04/11 07:30:50;;;;;;;5.17;2.80;;;;;;;13.56;37.82;95118.44;5010977;28;20053;-50
2021/04/11 07:33:36;;;;;;;5.47;2.45;;;;;;;13.77;37.97;95107.00;5001851;28;20145;-55
2021/04/11 07:36:12;;;;;;;5.82;2.60;;;;;;;13.78;37.34;95118.69;5007544;28;20045;-51
2021/04/11 07:38:52;;;;;;;4.47;3.20;;;;;;;13.87;36.73;95107.50;5006256;28;21886;-53
2021/04/11 07:41:54;;;;;;;4.57;2.40;;;;;;;13.93;36.55;95108.72;5011317;28;20499;-53
2021/04/11 07:44:38;;;;;;;3.72;2.35;;;;;;;14.03;37.13;95102.59;5013361;28;20088;-53
2021/04/11 07:47:33;;;;;;;5.60;2.30;;;;;;;14.11;36.29;95104.25;5022098;28;20076;-54
2021/04/11 07:50:42;;;;;;;6.20;2.20;;;;;;;14.30;37.28;95110.63;5018224;28;20116;-54
2021/04/11 07:53:27;;;;;;;3.58;2.17;;;;;;;14.47;34.97;95101.81;5009581;28;20144;-53
2021/04/11 07:56:22;;;;;;;2.30;1.80;;;;;;;14.58;34.70;95102.72;5018015;28;20108;-52
2021/04/11 07:59:09;;;;;;;4.68;2.25;;;;;;;14.77;36.99;95100.91;5026278;28;20057;-50
2021/04/11 08:02:07;;;;;;;5.40;2.40;;;;;;;14.71;35.39;95103.97;5003928;28;20050;-48
2021/04/11 08:04:59;;;;;;;3.15;1.80;;;;;;;14.33;34.63;95107.16;5012516;28;20077;-49
2021/04/11 08:07:53;;;;;;;4.78;2.33;;;;;;;14.52;34.33;95109.66;5004556;28;20057;-51
2021/04/11 08:10:50;;;;;;;6.97;2.42;;;;;;;14.83;34.41;95107.56;5008548;28;20081;-50
2021/04/11 08:13:38;;;;;;;5.00;2.53;;;;;;;15.06;34.42;95110.81;4993035;28;20566;-53
2021/04/11 08:16:24;;;;;;;2.50;2.03;;;;;;;15.08;34.29;95103.03;5019183;28;20100;-50
2021/04/11 08:19:16;;;;;;;3.85;2.15;;;;;;;15.08;35.74;95111.22;4996523;28;20043;-51
2021/04/11 08:21:52;;;;;;;5.43;2.03;;;;;;;15.23;33.54;95109.31;5010864;28;20048;-53
2021/04/11 08:24:45;;;;;;;3.90;1.80;;;;;;;15.40;32.62;95105.91;5012726;28;20060;-51
2021/04/11 08:27:29;;;;;;;3.95;1.80;;;;;;;15.38;33.27;95099.28;5001863;28;20053;-52
2021/04/11 08:30:33;;;;;;;2.37;1.53;;;;;;;15.48;32.64;95093.09;5010222;28;20523;-49
2021/04/11 08:33:14;;;;;;;4.25;1.70;;;;;;;15.56;32.89;95091.16;4996121;28;20833;-51
2021/04/11 08:36:12;;;;;;;4.53;1.70;;;;;;;15.71;32.86;95092.03;5003472;28;20092;-52
2021/04/11 08:39:16;;;;;;;2.30;1.50;;;;;;;15.83;32.19;95099.84;5000289;28;20054;-52
2021/04/11 08:42:04;;;;;;;2.28;1.50;;;;;;;15.91;33.14;95087.00;4992669;28;20058;-51
2021/04/11 08:45:12;;;;;;;6.22;1.40;;;;;;;16.01;32.60;95088.97;5006166;28;20082;-49
2021/04/11 08:47:45;;;;;;;2.67;1.40;;;;;;;15.95;32.11;95095.97;4960482;28;20497;-50
2021/04/11 08:50:24;;;;;;;2.38;1.50;;;;;;;16.05;33.10;95095.19;4958281;28;20042;-53
2021/04/11 08:53:08;;;;;;;3.40;1.50;;;;;;;16.21;31.49;95106.53;4993998;28;20381;-52
2021/04/11 08:56:02;;;;;;;3.78;1.77;;;;;;;16.18;31.39;95109.25;5009602;28;20053;-51
2021/04/11 08:58:53;;;;;;;4.03;1.38;;;;;;;16.16;31.69;95106.91;5010270;28;20424;-49
2021/04/11 09:01:43;;;;;;;3.20;1.55;;;;;;;16.00;32.36;95114.69;5011726;28;20042;-50
2021/04/11 09:04:33;;;;;;;2.83;1.70;;;;;;;16.02;31.99;95113.16;5007420;28;20054;-49
2021/04/11 09:07:03;;;;;;;4.43;2.10;;;;;;;16.19;31.90;95108.88;5012218;28;20061;-50
2021/04/11 09:09:50;;;;;;;2.85;1.60;;;;;;;16.23;31.35;95111.59;5010984;28;20057;-51
2021/04/11 09:12:44;;;;;;;2.83;1.40;;;;;;;16.22;31.81;95105.38;5011667;28;20396;-58
2021/04/11 09:15:29;;;;;;;;;;;;;;;16.25;31.85;95101.88;5014548;28;20058;-50
2021/04/11 09:18:16;;;;;;;2.20;1.35;;;;;;;16.22;31.72;95105.38;5006404;28;19983;-52
2021/04/11 09:21:13;;;;;;;2.83;1.42;;;;;;;16.38;31.51;95109.66;5015209;28;20453;-51
2021/04/11 09:23:49;;;;;;;2.67;1.70;;;;;;;16.30;32.49;95106.16;5011228;28;20474;-48
2021/04/11 09:26:34;;;;;;;2.85;1.65;;;;;;;16.42;32.05;95103.03;5011892;28;20053;-50
2021/04/11 09:29:22;;;;;;;5.35;1.45;;;;;;;16.31;32.51;95096.78;5010309;28;20104;-51
2021/04/11 09:31:52;;;;;;;2.00;1.40;;;;;;;16.36;32.19;95093.69;5005301;28;20100;-48
2021/04/11 09:34:28;;;;;;;2.75;1.70;;;;;;;16.46;32.08;95089.38;5009807;28;20100;-48
2021/04/11 09:37:28;;;;;;;2.70;1.90;;;;;;;16.72;31.49;95093.66;5011733;28;20065;-51
2021/04/11 09:39:57;;;;;;;2.42;1.30;;;;;;;16.80;31.63;95090.56;5011125;28;20054;-51
2021/04/11 09:42:40;;;;;;;4.15;1.50;;;;;;;16.66;31.42;95093.25;5010113;28;20054;-49
2021/04/11 09:45:23;;;;;;;4.10;2.30;;;;;;;16.60;31.77;95087.41;5011223;28;20042;-51
2021/04/11 09:48:16;;;;;;;2.78;1.50;;;;;;;16.71;31.95;95095.63;5011790;28;20050;-49
2021/04/11 09:51:27;;;;;;;1.75;1.30;;;;;;;16.88;32.07;95096.00;5009673;28;20046;-48
2021/04/11 09:54:12;;;;;;;5.13;1.45;;;;;;;16.92;30.88;95092.09;5011226;28;20057;-49
2021/04/11 09:57:01;;;;;;;2.92;1.33;;;;;;;16.39;31.50;95090.16;5011486;28;20058;-50
2021/04/11 09:59:59;;;;;;;6.03;3.60;;;;;;;16.63;31.49;95090.53;5011629;28;20058;-51
2021/04/11 10:02:42;;;;;;;3.88;1.70;;;;;;;16.63;31.33;95093.28;5011182;28;20565;-49
2021/04/11 10:05:12;;;;;;;7.60;1.90;;;;;;;17.00;30.75;95085.44;5011714;28;20053;-48
2021/04/11 10:07:57;;;;;;;2.67;1.30;;;;;;;16.98;30.99;95076.84;5002715;28;20502;-50
2021/04/11 10:10:38;;;;;;;4.13;2.33;;;;;;;17.10;31.16;95080.34;5011186;28;20081;-50
2021/04/11 10:13:46;;;;;;;1.70;1.10;;;;;;;17.18;32.04;95074.44;5011475;28;20116;-49
2021/04/11 10:16:32;;;;;;;2.97;1.23;;;;;;;17.50;31.11;95082.53;5012002;28;20049;-57
2021/04/11 10:19:17;;;;;;;3.58;1.80;;;;;;;17.45;30.78;95072.03;5011827;28;20050;-52
2021/04/11 10:21:52;;;;;;;2.83;1.50;;;;;;;17.21;30.57;95072.88;5014894;28;20073;-48
2021/04/11 10:24:40;;;;;;;3.35;1.20;;;;;;;17.24;30.92;95069.38;5015011;28;20057;-50
2021/04/11 10:27:20;;;;;;;2.78;1.30;;;;;;;17.35;30.09;95066.59;5015303;28;20115;-49
2021/04/11 10:29:48;;;;;;;2.63;1.15;;;;;;;16.77;31.58;95060.53;5012877;28;20104;-50
2021/04/11 10:32:27;;;;;;;1.52;1.13;;;;;;;16.83;31.59;95058.94;5006752;28;20092;-52
2021/04/11 10:34:54;;;;;;;3.45;1.30;;;;;;;17.08;32.10;95067.06;5014751;28;20061;-50
2021/04/11 10:37:39;;;;;;;1.85;1.10;;;;;;;17.37;31.09;95059.53;5013242;28;20058;-52
2021/04/11 10:40:25;;;;;;;3.67;1.38;;;;;;;17.74;30.88;95053.50;5012484;28;20069;-53
2021/04/11 10:43:06;;;;;;;2.45;1.13;;;;;;;18.07;32.07;95054.13;5012804;28;20050;-49
2021/04/11 10:45:38;;;;;;;2.08;1.10;;;;;;;18.43;30.70;95060.09;5012311;28;20492;-50
2021/04/11 10:48:29;;;;;;;3.25;1.35;;;;;;;18.25;30.45;95058.66;5010121;28;20058;-49
2021/04/11 10:51:25;;;;;;;3.13;1.10;;;;;;;18.68;29.90;95054.38;5009959;28;20057;-52
2021/04/11 10:53:58;;;;;;;2.17;1.02;;;;;;;18.92;29.42;95047.13;5012868;28;20200;-52
2021/04/11 10:56:45;;;;;;;3.95;1.50;;;;;;;19.15;29.68;95046.50;5014155;28;20058;-54
2021/04/11 10:59:31;;;;;;;1.75;1.00;;;;;;;19.41;29.28;95044.22;5013761;28;20058;-53
2021/04/11 11:02:05;;;;;;;1.98;1.00;;;;;;;19.55;29.15;95040.53;5014162;28;20149;-49
2021/04/11 11:05:13;;;;;;;2.85;1.25;;;;;;;19.72;29.07;95036.78;5014261;28;20058;-51
2021/04/11 11:08:01;;;;;;;2.25;1.30;;;;;;;19.80;27.71;95038.25;5013186;28;20092;-49
2021/04/11 11:10:50;;;;;;;2.20;1.10;;;;;;;19.61;27.51;95036.13;5009120;28;20058;-51
2021/04/11 11:13:45;;;;;;;1.75;0.98;;;;;;;19.91;27.84;95038.09;5011006;28;20111;-50
2021/04/11 11:16:22;;;;;;;2.38;1.05;;;;;;;20.23;27.40;95029.38;5013878;28;20068;-51
2021/04/11 11:19:17;;;;;;;2.05;1.10;;;;;;;20.26;27.76;95028.53;5014012;28;20053;-51
2021/04/11 11:22:11;;;;;;;3.53;0.90;;;;;;;20.16;26.38;95032.22;5014385;28;20715;-53
2021/04/11 11:24:55;;;;;;;2.67;1.10;;;;;;;19.92;27.50;95036.13;5014789;28;20064;-49
2021/04/11 11:27:37;;;;;;;2.40;1.25;;;;;;;20.20;27.24;95023.94;5013411;28;20081;-55
2021/04/11 11:30:51;;;;;;;3.97;1.10;;;;;;;20.66;27.13;95017.69;5013244;28;20069;-48
2021/04/11 11:33:39;;;;;;;1.83;1.10;;;;;;;20.84;26.26;95022.09;5011892;28;20084;-49
2021/04/11 11:36:10;;;;;;;3.58;1.02;;;;;;;21.74;27.14;95018.34;5013561;28;20509;-49
2021/04/11 11:38:52;;;;;;;3.58;0.95;;;;;;;22.25;26.03;95027.06;5013538;28;20053;-51
2021/04/11 11:41:35;;;;;;;1.90;1.13;;;;;;;22.10;25.44;95030.13;5013230;28;20053;-50
2021/04/11 11:44:20;;;;;;;4.10;1.10;;;;;;;22.26;25.35;95026.63;5013826;28;20052;-50
2021/04/11 11:46:58;;;;;;;3.33;1.02;;;;;;;22.19;24.63;95031.53;5011914;28;20407;-52
2021/04/11 11:49:39;;;;;;;1.45;0.93;;;;;;;21.82;24.92;95025.25;5012033;28;20053;-55
2021/04/11 11:52:44;;;;;;;1.17;0.90;;;;;;;21.24;25.76;95020.91;5012101;28;20500;-53
2021/04/11 11:55:34;;;;;;;2.95;0.95;;;;;;;20.70;25.94;95028.63;5012303;28;20046;-51
2021/04/11 11:58:24;;;;;;;1.38;0.90;;;;;;;20.38;26.78;95029.94;5012382;28;20058;-49
2021/04/11 12:01:05;;;;;;;1.63;0.90;;;;;;;20.11;27.14;95024.44;5013033;28;20034;-50
2021/04/11 12:03:36;;;;;;;2.28;1.20;;;;;;;19.95;27.59;95027.06;5011305;28;20495;-54
2021/04/11 12:06:23;;;;;;;1.25;0.90;;;;;;;19.55;27.89;95029.56;4993623;28;20058;-49
2021/04/11 12:09:03;;;;;;;1.25;0.82;;;;;;;19.54;28.58;95028.00;5003368;28;20112;-53
2021/04/11 12:11:44;;;;;;;1.08;0.80;;;;;;;19.55;28.62;95033.06;5011516;28;20066;-49
2021/04/11 12:14:36;;;;;;;1.88;1.00;;;;;;;19.60;28.44;95034.59;5012523;28;20054;-50
2021/04/11 12:17:17;;;;;;;1.85;1.00;;;;;;;19.32;29.04;95035.72;5003418;28;20049;-51
2021/04/11 12:20:02;;;;;;;3.17;1.00;;;;;;;19.25;29.81;95042.06;5009765;28;20042;-48
2021/04/11 12:22:37;;;;;;;4.18;0.90;;;;;;;19.29;29.37;95033.78;5012123;28;20053;-50
2021/04/11 12:25:21;;;;;;;0.95;0.60;;;;;;;19.24;27.72;95029.56;5011234;28;20054;-48
2021/04/11 12:27:48;;;;;;;4.28;0.88;;;;;;;18.89;28.82;95028.75;4999100;28;20065;-49
2021/04/11 12:30:37;;;;;;;1.55;0.68;;;;;;;19.03;28.15;95029.78;5005440;28;20420;-52
2021/04/11 12:33:36;;;;;;;1.38;0.70;;;;;;;18.96;27.91;95027.91;5027584;28;20104;-50
2021/04/11 12:36:20;;;;;;;1.73;0.60;;;;;;;19.05;27.61;95032.91;5010263;28;20041;-49
2021/04/11 12:38:51;;;;;;;4.38;0.80;;;;;;;18.97;28.60;95034.16;5005893;28;20104;-52
2021/04/11 12:41:43;;;;;;;3.85;0.85;;;;;;;19.27;27.90;95041.66;5011062;28;20106;-48
2021/04/11 12:44:25;;;;;;;1.90;0.90;;;;;;;19.36;27.67;95039.19;5021901;28;20119;-51